createdAt,value
2023-02-28T00:00:33.036Z,5.88
2023-02-28T00:02:34.497Z,5.20
2023-02-28T00:04:35.978Z,5.03
2023-02-28T00:06:37.532Z,5.38
2023-02-28T00:08:39.522Z,5.05
2023-02-28T00:10:41.016Z,5.50
2023-02-28T00:12:42.776Z,5.55
2023-02-28T00:14:44.237Z,5.28
2023-02-28T00:16:45.836Z,5.80
2023-02-28T00:18:48.644Z,5.30
2023-02-28T00:20:50.174Z,5.43
2023-02-28T00:22:53.463Z,5.57
2023-02-28T00:24:54.937Z,5.85
2023-02-28T00:26:56.398Z,5.55
2023-02-28T00:28:57.885Z,5.25
2023-02-28T00:31:01.058Z,5.90
2023-02-28T00:33:02.621Z,5.60
2023-02-28T00:35:05.321Z,6.47
2023-02-28T00:37:08.310Z,5.60
2023-02-28T00:39:09.837Z,6.43
2023-02-28T00:41:11.598Z,6.93
2023-02-28T00:43:13.173Z,7.05
2023-02-28T00:45:14.628Z,6.30
2023-02-28T00:47:16.177Z,6.25
2023-02-28T00:49:17.868Z,5.68
2023-02-28T00:51:19.317Z,6.40
2023-02-28T00:53:21.237Z,5.97
2023-02-28T00:55:22.780Z,5.60
2023-02-28T00:57:24.294Z,5.97
2023-02-28T00:59:25.935Z,5.25
2023-02-28T01:01:27.835Z,5.93
2023-02-28T01:03:29.618Z,5.68
2023-02-28T01:05:31.128Z,5.53
2023-02-28T01:07:32.572Z,5.50
2023-02-28T01:09:34.095Z,6.18
2023-02-28T01:11:36.411Z,6.60
2023-02-28T01:13:38.496Z,6.55
2023-02-28T01:15:47.098Z,5.80
2023-02-28T01:17:48.631Z,6.68
2023-02-28T01:19:50.160Z,6.18
2023-02-28T01:21:51.627Z,6.60
2023-02-28T01:23:53.096Z,7.32
2023-02-28T01:25:54.568Z,6.25
2023-02-28T01:27:56.159Z,6.72
2023-02-28T01:29:57.618Z,6.55
2023-02-28T01:32:00.553Z,6.32
2023-02-28T01:34:02.382Z,6.50
2023-02-28T01:36:07.113Z,6.28
2023-02-28T01:38:21.308Z,7.50
2023-02-28T01:40:23.848Z,6.68
2023-02-28T01:42:25.336Z,7.03
2023-02-28T01:44:54.817Z,6.43
2023-02-28T01:46:56.369Z,6.25
2023-02-28T01:49:05.252Z,6.30
2023-02-28T01:53:18.810Z,6.15
2023-02-28T01:55:22.386Z,6.53
2023-02-28T01:57:30.668Z,6.03
2023-02-28T01:59:47.442Z,6.22
2023-02-28T02:01:49.764Z,6.35
2023-02-28T02:03:57.372Z,6.30
2023-02-28T02:05:58.853Z,7.20
2023-02-28T02:08:06.419Z,6.18
2023-02-28T02:10:17.198Z,6.35
2023-02-28T02:12:39.641Z,5.72
2023-02-28T02:14:53.206Z,6.05
2023-02-28T02:17:29.220Z,5.50
2023-02-28T02:19:39.909Z,5.80
2023-02-28T02:21:56.069Z,5.78
2023-02-28T02:24:25.748Z,7.38
2023-02-28T02:26:49.038Z,5.85
2023-02-28T02:29:27.243Z,6.97
2023-02-28T02:32:04.835Z,6.43
2023-02-28T02:34:35.644Z,6.38
2023-02-28T02:36:50.181Z,6.95
2023-02-28T02:38:58.767Z,6.80
2023-02-28T02:41:12.401Z,6.63
2023-02-28T02:43:27.477Z,6.05
2023-02-28T02:45:45.887Z,7.00
2023-02-28T02:47:49.138Z,7.65
2023-02-28T02:49:53.647Z,6.60
2023-02-28T02:51:59.250Z,6.70
2023-02-28T02:54:09.946Z,6.78
2023-02-28T02:56:13.191Z,7.13
2023-02-28T02:58:20.142Z,7.03
2023-02-28T03:00:27.485Z,7.45
2023-02-28T03:02:35.144Z,7.60
2023-02-28T03:04:44.464Z,7.38
2023-02-28T03:06:45.957Z,6.75
2023-02-28T03:08:47.426Z,7.30
2023-02-28T03:10:57.052Z,7.18
2023-02-28T03:13:35.475Z,7.35
2023-02-28T03:16:00.498Z,7.18
2023-02-28T03:18:09.489Z,7.88
2023-02-28T03:20:28.963Z,7.25
2023-02-28T03:22:43.357Z,6.72
2023-02-28T03:24:49.352Z,7.03
2023-02-28T03:27:02.541Z,6.85
2023-02-28T03:29:28.920Z,7.40
2023-02-28T03:31:36.161Z,7.05
2023-02-28T03:33:43.513Z,6.88
2023-02-28T03:35:52.533Z,6.85
2023-02-28T03:38:05.880Z,6.32
2023-02-28T03:40:13.709Z,7.30
2023-02-28T03:42:19.760Z,6.67
2023-02-28T03:44:30.290Z,6.65
2023-02-28T03:46:37.247Z,6.57
2023-02-28T03:48:45.490Z,6.40
2023-02-28T03:50:50.266Z,6.20
2023-02-28T03:53:02.124Z,6.15
2023-02-28T03:55:10.710Z,5.20
2023-02-28T03:57:38.408Z,6.13
2023-02-28T03:59:50.838Z,6.07
2023-02-28T04:01:52.685Z,5.55
2023-02-28T04:03:54.536Z,5.35
2023-02-28T04:05:58.273Z,5.40
2023-02-28T04:08:09.500Z,4.60
2023-02-28T04:10:12.756Z,4.65
2023-02-28T04:12:14.217Z,4.63
2023-02-28T04:14:16.039Z,4.38
2023-02-28T04:16:33.522Z,4.88
2023-02-28T04:18:35.752Z,4.68
2023-02-28T04:20:37.443Z,4.35
2023-02-28T04:22:38.892Z,4.45
2023-02-28T04:24:42.456Z,3.95
2023-02-28T04:26:49.512Z,5.18
2023-02-28T04:28:50.970Z,4.78
2023-02-28T04:30:57.708Z,4.60
2023-02-28T04:33:01.076Z,5.40
2023-02-28T04:35:03.603Z,5.20
2023-02-28T04:37:13.164Z,4.80
2023-02-28T04:39:16.796Z,4.63
2023-02-28T04:41:18.714Z,4.93
2023-02-28T04:43:20.175Z,4.43
2023-02-28T04:45:21.768Z,4.47
2023-02-28T04:47:23.300Z,4.45
2023-02-28T04:49:24.859Z,4.78
2023-02-28T04:51:26.364Z,4.90
2023-02-28T04:53:29.408Z,4.80
2023-02-28T04:55:30.869Z,4.68
2023-02-28T04:57:32.314Z,4.72
2023-02-28T04:59:34.008Z,5.10
2023-02-28T05:01:35.899Z,4.35
2023-02-28T05:03:37.350Z,4.65
2023-02-28T05:05:38.791Z,4.63
2023-02-28T05:07:40.250Z,4.55
2023-02-28T05:09:41.697Z,4.15
2023-02-28T05:11:43.340Z,4.72
2023-02-28T05:13:44.892Z,4.88
2023-02-28T05:15:46.359Z,4.35
2023-02-28T05:17:47.880Z,5.50
2023-02-28T05:19:49.316Z,5.15
2023-02-28T05:21:54.492Z,4.95
2023-02-28T05:23:57.747Z,4.57
2023-02-28T05:25:59.471Z,5.25
2023-02-28T05:28:00.987Z,4.60
2023-02-28T05:30:04.488Z,5.00
2023-02-28T05:32:06.061Z,4.68
2023-02-28T05:34:07.596Z,4.63
2023-02-28T05:36:09.392Z,5.20
2023-02-28T05:38:10.867Z,4.20
2023-02-28T05:40:12.749Z,5.10
2023-02-28T05:42:14.242Z,4.10
2023-02-28T05:44:16.568Z,4.13
2023-02-28T05:46:18.277Z,4.80
2023-02-28T05:48:19.779Z,4.10
2023-02-28T05:50:21.361Z,4.88
2023-02-28T05:52:23.002Z,4.25
2023-02-28T05:54:24.448Z,4.20
2023-02-28T05:56:26.354Z,4.15
2023-02-28T05:58:31.528Z,4.75
2023-02-28T06:00:33.050Z,4.97
2023-02-28T06:02:34.597Z,4.85
2023-02-28T06:04:36.086Z,5.18
2023-02-28T06:06:38.044Z,4.60
2023-02-28T06:08:39.494Z,4.78
2023-02-28T06:10:40.971Z,5.22
2023-02-28T06:12:42.997Z,4.78
2023-02-28T06:14:44.604Z,5.35
2023-02-28T06:16:46.414Z,5.15
2023-02-28T06:18:47.934Z,5.13
2023-02-28T06:20:56.310Z,5.35
2023-02-28T06:23:01.530Z,5.50
2023-02-28T06:25:04.291Z,5.20
2023-02-28T06:27:06.553Z,5.95
2023-02-28T06:29:08.501Z,4.82
2023-02-28T06:31:12.286Z,5.43
2023-02-28T06:33:13.773Z,5.40
2023-02-28T06:35:15.320Z,5.38
2023-02-28T06:37:17.494Z,5.47
2023-02-28T06:39:19.372Z,4.75
2023-02-28T06:41:22.144Z,7.55
2023-02-28T06:43:24.383Z,5.35
2023-02-28T06:45:27.124Z,5.43
2023-02-28T06:47:28.565Z,4.88
2023-02-28T06:49:31.723Z,5.70
2023-02-28T06:51:33.179Z,5.50
2023-02-28T06:53:35.068Z,5.50
2023-02-28T06:55:39.140Z,5.50
2023-02-28T06:57:40.663Z,5.82
2023-02-28T06:59:42.123Z,6.78
2023-02-28T07:01:43.728Z,5.20
2023-02-28T07:03:45.277Z,5.72
2023-02-28T07:05:46.754Z,5.65
2023-02-28T07:07:48.263Z,5.93
2023-02-28T07:09:49.755Z,5.75
2023-02-28T07:11:51.243Z,6.43
2023-02-28T07:13:54.281Z,5.93
2023-02-28T07:15:57.787Z,5.95
2023-02-28T07:17:59.378Z,5.60
2023-02-28T07:20:00.841Z,5.35
2023-02-28T07:22:03.757Z,5.50
2023-02-28T07:24:05.513Z,5.18
2023-02-28T07:26:07.688Z,5.50
2023-02-28T07:28:09.186Z,5.95
2023-02-28T07:30:11.341Z,5.20
2023-02-28T07:32:12.830Z,5.40
2023-02-28T07:34:15.005Z,5.60
2023-02-28T07:36:19.773Z,5.00
2023-02-28T07:38:21.304Z,5.45
2023-02-28T07:40:22.875Z,5.80
2023-02-28T07:42:24.333Z,5.90
2023-02-28T07:44:25.897Z,5.18
2023-02-28T07:46:30.439Z,5.50
2023-02-28T07:48:32.625Z,5.28
2023-02-28T07:50:35.483Z,4.70
2023-02-28T07:52:40.572Z,4.38
2023-02-28T07:54:42.049Z,5.10
2023-02-28T07:56:43.517Z,4.68
2023-02-28T07:58:44.984Z,4.80
2023-02-28T08:00:46.471Z,4.90
2023-02-28T08:02:47.981Z,4.90
2023-02-28T08:04:50.334Z,4.60
2023-02-28T08:06:53.985Z,5.50
2023-02-28T08:08:57.082Z,5.30
2023-02-28T08:11:03.217Z,5.13
2023-02-28T08:13:04.784Z,5.10
2023-02-28T08:15:06.932Z,4.85
2023-02-28T08:17:08.423Z,4.72
2023-02-28T08:19:10.091Z,4.32
2023-02-28T08:21:11.971Z,4.40
2023-02-28T08:23:13.507Z,4.15
2023-02-28T08:25:15.071Z,3.80
2023-02-28T08:27:16.556Z,4.63
2023-02-28T08:29:18.061Z,4.40
2023-02-28T08:31:19.953Z,4.72
2023-02-28T08:33:21.616Z,4.55
2023-02-28T08:35:23.625Z,4.57
2023-02-28T08:37:25.495Z,2.95
2023-02-28T08:39:27.051Z,2.70
2023-02-28T08:41:29.051Z,2.63
2023-02-28T08:43:30.776Z,2.20
2023-02-28T08:45:32.317Z,2.40
2023-02-28T08:47:33.841Z,2.67
2023-02-28T08:49:35.393Z,2.60
2023-02-28T08:51:36.875Z,2.17
2023-02-28T08:53:40.212Z,2.60
2023-02-28T08:55:41.682Z,1.95
2023-02-28T08:57:43.153Z,2.75
2023-02-28T08:59:44.678Z,2.28
2023-02-28T09:01:46.252Z,1.92
2023-02-28T09:03:50.543Z,2.08
2023-02-28T09:05:54.880Z,1.80
2023-02-28T09:07:56.417Z,2.20
2023-02-28T09:09:58.827Z,2.00
2023-02-28T09:12:00.393Z,2.08
2023-02-28T09:14:04.256Z,1.75
2023-02-28T09:16:09.951Z,1.60
2023-02-28T09:18:11.831Z,1.70
2023-02-28T09:20:13.504Z,1.73
2023-02-28T09:22:14.953Z,1.95
2023-02-28T09:24:16.478Z,1.50
2023-02-28T09:26:21.169Z,1.30
2023-02-28T09:28:23.723Z,1.50
2023-02-28T09:30:25.369Z,1.55
2023-02-28T09:32:27.070Z,1.20
2023-02-28T09:34:31.922Z,1.50
2023-02-28T09:36:43.796Z,1.10
2023-02-28T09:38:48.782Z,0.82
2023-02-28T09:41:00.453Z,0.77
2023-02-28T09:43:01.924Z,0.90
2023-02-28T09:45:14.321Z,0.75
2023-02-28T09:47:20.986Z,0.80
2023-02-28T09:49:26.642Z,0.60
2023-02-28T09:51:33.497Z,0.80
2023-02-28T09:53:40.458Z,0.65
2023-02-28T09:55:52.395Z,0.60
2023-02-28T09:57:55.477Z,0.60
2023-02-28T10:00:20.242Z,0.65
2023-02-28T10:02:39.389Z,0.82
2023-02-28T10:04:56.292Z,1.38
2023-02-28T10:06:58.825Z,0.73
2023-02-28T10:09:03.005Z,0.70
2023-02-28T10:11:08.616Z,0.90
2023-02-28T10:13:25.902Z,0.95
2023-02-28T10:15:32.096Z,1.00
2023-02-28T10:17:54.764Z,1.00
2023-02-28T10:20:12.494Z,0.85
2023-02-28T10:22:30.106Z,1.08
2023-02-28T10:24:39.944Z,1.00
2023-02-28T10:26:46.152Z,1.60
2023-02-28T10:28:47.849Z,0.90
2023-02-28T10:30:54.246Z,0.80
2023-02-28T10:32:56.310Z,1.00
2023-02-28T10:35:18.560Z,0.90
2023-02-28T10:37:20.803Z,0.90
2023-02-28T10:39:45.110Z,1.00
2023-02-28T10:41:46.600Z,0.90
2023-02-28T10:43:48.179Z,1.17
2023-02-28T10:46:00.587Z,0.95
2023-02-28T10:48:05.991Z,1.23
2023-02-28T10:50:44.348Z,1.75
2023-02-28T10:52:45.852Z,1.63
2023-02-28T10:54:47.313Z,1.25
2023-02-28T10:57:20.529Z,0.90
2023-02-28T10:59:29.466Z,1.10
2023-02-28T11:01:31.256Z,1.10
2023-02-28T11:03:36.049Z,1.00
2023-02-28T11:05:37.652Z,0.93
2023-02-28T11:07:52.979Z,0.90
2023-02-28T11:09:57.778Z,0.68
2023-02-28T11:11:59.873Z,1.00
2023-02-28T11:14:06.949Z,0.90
2023-02-28T11:16:12.580Z,0.80
2023-02-28T11:18:14.025Z,1.40
2023-02-28T11:20:22.558Z,1.05
2023-02-28T11:22:30.754Z,1.02
2023-02-28T11:24:36.654Z,0.90
2023-02-28T11:26:57.767Z,0.93
2023-02-28T11:29:13.153Z,0.85
2023-02-28T11:31:17.712Z,0.93
2023-02-28T11:33:25.176Z,1.08
2023-02-28T11:35:35.675Z,0.90
2023-02-28T11:37:39.051Z,0.95
2023-02-28T11:39:40.709Z,0.80
2023-02-28T11:42:02.712Z,0.90
2023-02-28T11:44:29.288Z,1.55
2023-02-28T11:47:01.749Z,0.90
2023-02-28T11:49:18.481Z,0.90
2023-02-28T11:51:29.573Z,1.13
2023-02-28T11:53:57.043Z,0.73
2023-02-28T11:56:12.358Z,0.70
2023-02-28T11:58:48.334Z,0.88
2023-02-28T12:00:55.357Z,1.05
2023-02-28T12:03:19.106Z,0.82
2023-02-28T12:05:44.797Z,0.90
2023-02-28T12:07:59.555Z,0.80
2023-02-28T12:10:23.743Z,0.73
2023-02-28T12:12:35.356Z,0.80
2023-02-28T12:15:03.953Z,0.77
2023-02-28T12:17:20.506Z,0.80
2023-02-28T12:19:29.195Z,0.82
2023-02-28T12:23:35.169Z,1.00
2023-02-28T12:25:49.187Z,0.85
2023-02-28T12:27:54.113Z,0.88
2023-02-28T12:30:01.902Z,1.00
2023-02-28T12:32:09.396Z,1.15
2023-02-28T12:34:16.647Z,1.02
2023-02-28T12:36:23.105Z,0.80
2023-02-28T12:38:35.506Z,0.80
2023-02-28T12:40:50.039Z,0.80
2023-02-28T12:43:01.682Z,0.80
2023-02-28T12:45:11.307Z,1.20
2023-02-28T12:47:19.580Z,0.77
2023-02-28T12:49:32.747Z,0.80
2023-02-28T12:51:37.252Z,0.80
2023-02-28T12:53:50.914Z,0.80
2023-02-28T12:56:16.574Z,0.77
2023-02-28T12:58:30.904Z,0.95
2023-02-28T13:00:41.383Z,1.05
2023-02-28T13:03:07.753Z,1.05
2023-02-28T13:05:27.607Z,0.60
2023-02-28T13:07:47.657Z,0.95
2023-02-28T13:09:58.778Z,0.93
2023-02-28T13:12:00.566Z,0.90
2023-02-28T13:14:14.857Z,0.80
2023-02-28T13:16:16.533Z,0.80
2023-02-28T13:18:42.744Z,0.90
2023-02-28T13:20:49.230Z,0.95
2023-02-28T13:22:54.199Z,0.80
2023-02-28T13:24:57.433Z,0.77
2023-02-28T13:27:02.031Z,1.00
2023-02-28T13:29:16.837Z,0.90
2023-02-28T13:31:19.604Z,0.82
2023-02-28T13:33:21.050Z,0.70
2023-02-28T13:35:44.067Z,1.10
2023-02-28T13:37:50.809Z,1.33
2023-02-28T13:39:57.487Z,0.80
2023-02-28T13:42:35.311Z,0.95
2023-02-28T13:45:02.888Z,1.10
2023-02-28T13:47:04.338Z,0.88
2023-02-28T13:49:21.230Z,0.88
2023-02-28T13:51:45.096Z,0.98
2023-02-28T13:54:03.608Z,0.65
2023-02-28T13:58:50.248Z,0.73
2023-02-28T14:01:04.040Z,0.80
2023-02-28T14:03:39.062Z,0.60
2023-02-28T14:05:40.883Z,0.90
2023-02-28T14:07:48.201Z,0.80
2023-02-28T14:09:58.496Z,1.10
2023-02-28T14:12:38.708Z,0.77
2023-02-28T14:14:40.099Z,0.90
2023-02-28T14:16:50.633Z,0.90
2023-02-28T14:19:01.487Z,0.70
2023-02-28T14:21:12.105Z,0.68
2023-02-28T14:23:51.352Z,0.52
2023-02-28T14:26:15.985Z,0.80
2023-02-28T14:28:55.051Z,0.63
2023-02-28T14:31:01.869Z,1.10
2023-02-28T14:33:34.722Z,0.80
2023-02-28T14:36:03.720Z,0.93
2023-02-28T14:38:22.344Z,0.85
2023-02-28T14:42:38.976Z,0.93
2023-02-28T14:44:40.510Z,1.02
2023-02-28T14:46:44.006Z,1.23
2023-02-28T14:48:50.750Z,0.70
2023-02-28T14:50:54.931Z,0.70
2023-02-28T14:52:56.751Z,1.10
2023-02-28T14:55:01.240Z,0.70
2023-02-28T14:57:03.243Z,0.52
2023-02-28T14:59:06.326Z,1.05
2023-02-28T15:01:12.137Z,0.95
2023-02-28T15:03:35.003Z,0.88
2023-02-28T15:05:36.517Z,0.70
2023-02-28T15:07:38.316Z,0.73
2023-02-28T15:09:39.898Z,0.60
2023-02-28T15:11:41.865Z,0.70
2023-02-28T15:13:47.467Z,0.88
2023-02-28T15:16:02.994Z,0.70
2023-02-28T15:18:07.227Z,0.70
2023-02-28T15:20:13.760Z,1.00
2023-02-28T15:22:20.553Z,0.70
2023-02-28T15:24:25.587Z,0.93
2023-02-28T15:26:33.583Z,0.80
2023-02-28T15:28:35.118Z,0.68
2023-02-28T15:30:37.815Z,0.90
2023-02-28T15:32:40.962Z,0.95
2023-02-28T15:34:44.987Z,1.00
2023-02-28T15:36:46.738Z,0.90
2023-02-28T15:38:53.122Z,1.23
2023-02-28T15:40:57.109Z,0.85
2023-02-28T15:42:59.909Z,0.90
2023-02-28T15:45:01.399Z,0.88
2023-02-28T15:47:18.915Z,0.90
2023-02-28T15:49:22.492Z,0.90
2023-02-28T15:51:39.438Z,0.90
2023-02-28T15:53:46.669Z,0.90
2023-02-28T15:55:55.784Z,1.13
2023-02-28T15:58:01.306Z,1.00
2023-02-28T16:00:06.639Z,0.90
2023-02-28T16:02:21.639Z,0.85
2023-02-28T16:04:24.884Z,1.00
2023-02-28T16:06:32.414Z,0.88
2023-02-28T16:08:33.872Z,0.80
2023-02-28T16:10:35.342Z,0.75
2023-02-28T16:12:39.119Z,0.80
2023-02-28T16:14:41.330Z,1.40
2023-02-28T16:16:49.511Z,2.10
2023-02-28T16:18:51.560Z,1.73
2023-02-28T16:20:53.026Z,1.30
2023-02-28T16:22:55.480Z,1.30
2023-02-28T16:24:56.985Z,1.40
2023-02-28T16:26:58.823Z,1.05
2023-02-28T16:29:00.465Z,1.23
2023-02-28T16:31:05.987Z,1.13
2023-02-28T16:33:09.354Z,1.20
2023-02-28T16:35:11.792Z,1.10
2023-02-28T16:37:15.467Z,1.27
2023-02-28T16:39:17.065Z,1.40
2023-02-28T16:41:29.525Z,1.20
2023-02-28T16:43:31.154Z,1.30
2023-02-28T16:45:32.775Z,1.67
2023-02-28T16:47:34.471Z,2.22
2023-02-28T16:49:35.914Z,1.77
2023-02-28T16:51:37.506Z,1.83
2023-02-28T16:53:39.166Z,1.33
2023-02-28T16:55:41.096Z,1.00
2023-02-28T16:57:44.332Z,1.50
2023-02-28T16:59:45.865Z,1.20
2023-02-28T17:01:47.432Z,1.30
2023-02-28T17:03:50.176Z,1.10
2023-02-28T17:05:51.730Z,1.30
2023-02-28T17:07:53.238Z,1.45
2023-02-28T17:09:54.674Z,1.20
2023-02-28T17:11:57.625Z,1.70
2023-02-28T17:13:59.113Z,1.67
2023-02-28T17:16:00.752Z,1.60
2023-02-28T17:18:02.614Z,1.30
2023-02-28T17:20:04.881Z,1.73
2023-02-28T17:22:06.357Z,1.80
2023-02-28T17:24:08.193Z,1.50
2023-02-28T17:26:18.526Z,1.60
2023-02-28T17:28:22.129Z,1.80
2023-02-28T17:30:28.088Z,2.00
2023-02-28T17:32:29.602Z,2.38
2023-02-28T17:34:31.200Z,2.78
2023-02-28T17:36:34.606Z,2.30
2023-02-28T17:38:36.294Z,1.95
2023-02-28T17:40:37.855Z,1.60
2023-02-28T17:42:39.431Z,1.98
2023-02-28T17:44:40.968Z,3.13
2023-02-28T17:46:43.297Z,3.15
2023-02-28T17:48:45.145Z,2.45
2023-02-28T17:50:46.960Z,2.88
2023-02-28T17:52:48.909Z,2.47
2023-02-28T17:54:50.400Z,2.67
2023-02-28T17:56:51.883Z,2.58
2023-02-28T17:58:56.061Z,3.10
2023-02-28T18:00:57.778Z,2.92
2023-02-28T18:02:59.309Z,4.13
2023-02-28T18:05:00.973Z,3.60
2023-02-28T18:07:02.692Z,4.43
2023-02-28T18:09:04.170Z,3.40
2023-02-28T18:11:05.665Z,3.45
2023-02-28T18:13:07.137Z,3.65
2023-02-28T18:15:09.104Z,3.50
2023-02-28T18:17:13.252Z,3.17
2023-02-28T18:19:17.002Z,2.65
2023-02-28T18:21:18.446Z,2.80
2023-02-28T18:23:21.544Z,2.60
2023-02-28T18:25:23.405Z,2.60
2023-02-28T18:27:24.901Z,2.47
2023-02-28T18:29:28.565Z,2.60
2023-02-28T18:31:32.435Z,2.75
2023-02-28T18:33:34.331Z,2.90
2023-02-28T18:35:36.131Z,2.90
2023-02-28T18:37:38.394Z,3.28
2023-02-28T18:39:40.541Z,2.90
2023-02-28T18:41:42.172Z,3.13
2023-02-28T18:43:44.413Z,2.75
2023-02-28T18:45:45.939Z,4.00
2023-02-28T18:47:47.424Z,4.20
2023-02-28T18:49:48.895Z,3.55
2023-02-28T18:51:50.340Z,3.28
2023-02-28T18:53:52.424Z,2.65
2023-02-28T18:55:53.922Z,2.83
2023-02-28T18:57:55.414Z,3.22
2023-02-28T18:59:56.965Z,3.47
2023-02-28T19:01:58.652Z,2.70
2023-02-28T19:04:01.785Z,3.03
2023-02-28T19:06:03.619Z,2.53
2023-02-28T19:08:05.127Z,2.42
2023-02-28T19:10:07.354Z,2.50
2023-02-28T19:12:10.345Z,2.50
2023-02-28T19:14:11.818Z,2.60
2023-02-28T19:16:15.992Z,2.30
2023-02-28T19:18:17.550Z,3.05
2023-02-28T19:20:19.779Z,2.55
2023-02-28T19:22:21.581Z,2.60
2023-02-28T19:24:23.134Z,2.95
2023-02-28T19:26:26.227Z,2.20
2023-02-28T19:28:33.441Z,2.75
2023-02-28T19:30:35.048Z,2.70
2023-02-28T19:32:37.043Z,2.72
2023-02-28T19:34:38.791Z,2.88
2023-02-28T19:36:40.337Z,2.78
2023-02-28T19:38:42.559Z,3.20
2023-02-28T19:40:44.486Z,2.92
2023-02-28T19:42:45.974Z,2.28
2023-02-28T19:44:47.438Z,2.45
2023-02-28T19:46:48.881Z,2.70
2023-02-28T19:48:53.808Z,2.85
2023-02-28T19:51:01.295Z,2.95
2023-02-28T19:53:02.890Z,3.00
2023-02-28T19:55:04.820Z,3.15
2023-02-28T19:57:06.365Z,3.50
2023-02-28T19:59:16.796Z,4.55
2023-02-28T20:01:23.208Z,3.92
2023-02-28T20:03:24.761Z,4.20
2023-02-28T20:05:26.331Z,3.80
2023-02-28T20:07:27.895Z,5.90
2023-02-28T20:09:32.829Z,4.35
2023-02-28T20:11:34.277Z,4.45
2023-02-28T20:13:36.142Z,4.63
2023-02-28T20:15:37.827Z,5.10
2023-02-28T20:17:41.877Z,7.60
2023-02-28T20:19:43.528Z,5.32
2023-02-28T20:21:45.520Z,5.22
2023-02-28T20:23:48.684Z,6.18
2023-02-28T20:25:51.627Z,5.68
2023-02-28T20:27:53.113Z,6.82
2023-02-28T20:29:54.611Z,6.85
2023-02-28T20:31:58.236Z,6.18
2023-02-28T20:33:59.838Z,6.13
2023-02-28T20:36:02.340Z,5.68
2023-02-28T20:38:03.834Z,6.40
2023-02-28T20:40:06.524Z,6.82
2023-02-28T20:42:07.973Z,7.05
2023-02-28T20:44:13.128Z,7.00
2023-02-28T20:46:14.707Z,6.82
2023-02-28T20:48:16.213Z,7.30
2023-02-28T20:50:17.878Z,6.50
2023-02-28T20:52:19.514Z,7.13
2023-02-28T20:54:21.620Z,6.35
2023-02-28T20:56:25.998Z,7.68
2023-02-28T20:58:31.120Z,6.72
2023-02-28T21:00:32.598Z,6.72
2023-02-28T21:02:34.089Z,7.18
2023-02-28T21:04:35.640Z,6.68
2023-02-28T21:06:41.953Z,6.40
2023-02-28T21:08:44.013Z,8.15
2023-02-28T21:10:45.469Z,5.70
2023-02-28T21:12:50.426Z,6.57
2023-02-28T21:14:51.868Z,6.47
2023-02-28T21:16:53.393Z,6.50
2023-02-28T21:18:55.849Z,6.63
2023-02-28T21:21:11.863Z,6.10
2023-02-28T21:23:13.306Z,6.93
2023-02-28T21:25:15.212Z,6.80
2023-02-28T21:27:16.905Z,6.88
2023-02-28T21:29:18.369Z,6.90
2023-02-28T21:31:21.512Z,7.28
2023-02-28T21:33:22.946Z,7.00
2023-02-28T21:35:24.533Z,6.95
2023-02-28T21:37:26.093Z,6.97
2023-02-28T21:39:30.068Z,6.65
2023-02-28T21:41:31.641Z,7.38
2023-02-28T21:43:33.199Z,7.40
2023-02-28T21:45:34.735Z,7.38
2023-02-28T21:47:36.281Z,7.47
2023-02-28T21:49:39.133Z,7.00
2023-02-28T21:51:42.656Z,8.00
2023-02-28T21:53:44.473Z,7.07
2023-02-28T21:55:45.942Z,7.65
2023-02-28T21:57:47.390Z,6.72
2023-02-28T21:59:48.909Z,7.20
2023-02-28T22:01:55.274Z,8.38
2023-02-28T22:03:58.759Z,7.88
2023-02-28T22:06:00.341Z,7.75
2023-02-28T22:08:01.807Z,8.02
2023-02-28T22:10:03.844Z,8.90
2023-02-28T22:12:08.381Z,9.23
2023-02-28T22:14:12.463Z,9.90
2023-02-28T22:16:19.479Z,9.90
2023-02-28T22:18:20.928Z,10.05
2023-02-28T22:20:22.377Z,10.43
2023-02-28T22:22:23.846Z,10.23
2023-02-28T22:24:25.322Z,9.25
2023-02-28T22:26:26.836Z,11.13
2023-02-28T22:28:30.150Z,8.80
2023-02-28T22:30:31.728Z,9.65
2023-02-28T22:32:33.184Z,10.00
2023-02-28T22:34:35.286Z,9.93
2023-02-28T22:36:37.298Z,8.75
2023-02-28T22:38:39.262Z,9.23
2023-02-28T22:40:41.011Z,8.65
2023-02-28T22:42:42.729Z,10.88
2023-02-28T22:44:46.776Z,11.10
2023-02-28T22:46:52.476Z,10.32
2023-02-28T22:48:54.525Z,10.10
2023-02-28T22:51:15.058Z,11.27
2023-02-28T22:53:16.651Z,10.18
2023-02-28T22:55:18.227Z,9.63
2023-02-28T22:57:20.379Z,10.55
2023-02-28T22:59:21.948Z,10.10
2023-02-28T23:01:26.732Z,10.63
2023-02-28T23:03:28.822Z,9.82
2023-02-28T23:05:32.631Z,10.18
2023-02-28T23:07:34.281Z,11.43
2023-02-28T23:09:35.925Z,11.25
2023-02-28T23:11:43.750Z,10.85
2023-02-28T23:13:58.151Z,9.97
2023-02-28T23:15:59.712Z,10.13
2023-02-28T23:18:01.254Z,10.93
2023-02-28T23:20:02.985Z,10.35
2023-02-28T23:22:05.697Z,9.90
2023-02-28T23:24:10.587Z,9.45
2023-02-28T23:26:12.255Z,10.35
2023-02-28T23:28:13.737Z,10.23
2023-02-28T23:30:15.633Z,10.30
2023-02-28T23:32:17.299Z,10.07
2023-02-28T23:34:26.333Z,10.20
2023-02-28T23:36:29.474Z,10.05
2023-02-28T23:38:31.131Z,9.98
2023-02-28T23:40:32.689Z,10.80
2023-02-28T23:42:37.985Z,10.77
2023-02-28T23:44:39.587Z,11.70
2023-02-28T23:46:41.104Z,11.02
2023-02-28T23:48:42.952Z,10.40
2023-02-28T23:50:44.484Z,10.10
2023-02-28T23:52:46.055Z,10.90
2023-02-28T23:54:47.573Z,10.00
2023-02-28T23:56:49.170Z,10.63
2023-02-28T23:58:51.634Z,10.65
